Time;durP1;ratioP1;P1;durP2;ratioP2;P2;SDS_P1;SDS_P2;PMS_P1;PMS_P2;Temp;Humidity;BMP_temperature;BMP_pressure;BME280_temperature;BME280_humidity;BME280_pressure;Samples;Min_cycle;Max_cycle;Signal;HPM_P1;HPM_P2
2021/05/03 00:00:15;;;;;;;9.60;7.88;;;;;;;8.59;83.07;99172.72;5055304;28;20021;-59
2021/05/03 00:02:42;;;;;;;10.65;8.25;;;;;;;8.75;83.22;99179.28;5042568;28;20221;-59
2021/05/03 00:05:21;;;;;;;11.57;8.13;;;;;;;8.34;83.60;99131.06;5042576;28;20077;-60
2021/05/03 00:07:46;;;;;;;9.00;7.93;;;;;;;8.76;83.80;99160.28;5042973;28;20034;-60
2021/05/03 00:10:24;;;;;;;9.35;7.78;;;;;;;8.62;84.35;99154.59;5050606;28;20177;-60
2021/05/03 00:12:50;;;;;;;10.45;8.18;;;;;;;8.77;84.08;99151.66;5062544;28;20149;-60
2021/05/03 00:15:17;;;;;;;12.10;9.27;;;;;;;8.80;84.18;99145.59;5062404;28;20077;-59
2021/05/03 00:17:43;;;;;;;10.05;8.32;;;;;;;8.43;85.52;99141.22;5062359;28;20389;-60
2021/05/03 00:20:10;;;;;;;10.32;7.60;;;;;;;7.95;86.80;99088.91;5056425;28;20030;-59
2021/05/03 00:22:37;;;;;;;10.15;9.02;;;;;;;8.14;88.85;99124.63;5042426;28;20021;-60
2021/05/03 00:25:03;;;;;;;9.48;8.48;;;;;;;8.13;88.75;99113.44;5042417;28;20083;-59
2021/05/03 00:27:29;;;;;;;12.48;9.93;;;;;;;8.23;88.82;99105.53;5042439;28;20053;-59
2021/05/03 00:29:54;;;;;;;10.15;9.02;;;;;;;8.31;88.58;99095.91;5046009;28;20066;-59
2021/05/03 00:32:20;;;;;;;10.02;9.02;;;;;;;8.29;89.03;99090.78;5062421;28;20348;-59
2021/05/03 00:34:46;;;;;;;10.73;8.50;;;;;;;8.25;88.80;99080.53;5062389;28;20086;-59
2021/05/03 00:37:12;;;;;;;9.98;8.90;;;;;;;8.07;89.37;99054.28;5062398;28;20025;-59
2021/05/03 00:39:37;;;;;;;11.55;9.65;;;;;;;8.42;89.50;99072.44;5060895;28;20021;-59
2021/05/03 00:42:03;;;;;;;10.52;9.30;;;;;;;8.41;87.99;99078.50;5042317;28;20030;-59
2021/05/03 00:44:29;;;;;;;10.00;8.90;;;;;;;8.50;88.75;99080.03;5042265;28;20037;-59
2021/05/03 00:46:58;;;;;;;10.55;9.45;;;;;;;8.34;88.69;99059.72;5044607;28;20037;-59
2021/05/03 00:49:24;;;;;;;9.90;8.40;;;;;;;8.48;88.50;99068.91;5046300;28;20326;-60
2021/05/03 00:51:49;;;;;;;10.55;8.45;;;;;;;8.40;88.08;99056.97;5065364;28;20032;-60
2021/05/03 00:54:15;;;;;;;8.98;8.07;;;;;;;8.38;88.70;99035.53;5066070;28;20104;-60
2021/05/03 00:56:41;;;;;;;9.70;8.75;;;;;;;8.35;88.48;99034.75;5066251;28;20032;-59
2021/05/03 00:59:07;;;;;;;10.93;8.88;;;;;;;8.33;89.58;99021.88;5066072;28;20088;-59
2021/05/03 01:01:33;;;;;;;10.55;8.02;;;;;;;8.33;88.63;99019.31;5049280;28;20045;-58
2021/05/03 01:03:59;;;;;;;10.80;8.77;;;;;;;8.35;89.02;99019.28;5046005;28;20096;-58
2021/05/03 01:06:25;;;;;;;9.55;8.13;;;;;;;8.22;90.40;99013.53;5046033;28;20041;-60
2021/05/03 01:08:51;;;;;;;10.10;8.88;;;;;;;8.25;90.60;99013.47;5046086;28;20253;-60
2021/05/03 01:11:16;;;;;;;10.85;9.45;;;;;;;8.28;90.28;99003.09;5059807;28;20040;-59
2021/05/03 01:13:42;;;;;;;10.75;9.10;;;;;;;8.34;90.70;98995.22;5065897;28;20049;-60
2021/05/03 01:16:08;;;;;;;10.07;9.10;;;;;;;8.39;90.33;98985.63;5065714;28;20036;-60
2021/05/03 01:18:38;;;;;;;13.07;9.32;;;;;;;8.19;91.19;98983.50;5065759;28;20037;-60
2021/05/03 01:21:05;;;;;;;13.52;10.50;;;;;;;8.36;91.45;98972.78;5053721;28;20359;-60
2021/05/03 01:23:31;;;;;;;10.88;9.77;;;;;;;8.43;90.70;98976.09;5045813;28;20059;-60
2021/05/03 01:25:57;;;;;;;10.95;9.85;;;;;;;8.30;90.85;98970.38;5045756;28;20029;-60
2021/05/03 01:28:23;;;;;;;11.57;10.10;;;;;;;8.49;91.16;98964.78;5045670;28;20234;-60
2021/05/03 01:30:49;;;;;;;10.27;9.32;;;;;;;8.55;89.56;98969.78;5055190;28;20259;-60
2021/05/03 01:33:17;;;;;;;11.65;10.00;;;;;;;8.33;91.35;98959.13;5065435;28;20029;-59
2021/05/03 01:35:45;;;;;;;11.30;10.20;;;;;;;8.42;91.00;98946.88;5064335;28;20029;-59
2021/05/03 01:38:11;;;;;;;10.00;9.10;;;;;;;8.27;91.77;98947.22;5065364;28;20249;-60
2021/05/03 01:40:40;;;;;;;12.38;10.43;;;;;;;8.57;90.84;98939.66;5057355;28;20121;-59
2021/05/03 01:43:11;;;;;;;10.48;9.48;;;;;;;8.41;91.01;98937.41;5045375;28;20369;-60
2021/05/03 01:45:39;;;;;;;11.02;9.93;;;;;;;8.55;90.01;98941.41;5045246;28;20030;-59
2021/05/03 01:48:06;;;;;;;11.00;10.00;;;;;;;8.37;91.61;98934.97;5045204;28;20029;-61
2021/05/03 01:50:32;;;;;;;11.05;10.02;;;;;;;8.58;91.68;98918.09;5051996;28;20036;-59
2021/05/03 01:53:00;;;;;;;11.10;10.00;;;;;;;8.52;90.60;98921.69;5065156;28;20310;-60
2021/05/03 01:55:26;;;;;;;10.02;9.07;;;;;;;8.48;91.21;98916.66;5065100;28;20025;-60
2021/05/03 01:57:51;;;;;;;10.88;9.77;;;;;;;8.49;90.87;98893.38;5064121;28;20059;-59
2021/05/03 02:00:18;;;;;;;11.43;10.23;;;;;;;8.59;90.98;98906.91;5060140;28;20037;-59
2021/05/03 02:02:48;;;;;;;11.65;10.57;;;;;;;8.58;90.90;98907.78;5044884;28;20038;-59
2021/05/03 02:05:22;;;;;;;10.60;9.55;;;;;;;8.75;90.20;98894.44;5044878;28;20250;-59
2021/05/03 02:08:05;;;;;;;14.10;9.45;;;;;;;8.82;89.99;98890.78;5044970;28;20030;-59
2021/05/03 02:10:33;;;;;;;10.13;9.13;;;;;;;8.37;90.69;98836.94;5050964;28;20099;-59
2021/05/03 02:13:00;;;;;;;9.65;8.75;;;;;;;8.20;90.49;98820.13;5064545;28;20037;-60
2021/05/03 02:15:29;;;;;;;10.65;9.55;;;;;;;8.36;90.92;98815.41;5064740;28;20025;-59
2021/05/03 02:17:56;;;;;;;11.43;10.27;;;;;;;8.60;91.58;98867.31;5064707;28;20252;-59
2021/05/03 02:20:21;;;;;;;10.35;9.35;;;;;;;8.82;90.87;98867.56;5059660;28;20221;-59
2021/05/03 02:22:47;;;;;;;9.50;8.60;;;;;;;8.72;90.48;98846.34;5043547;28;20100;-60
2021/05/03 02:25:14;;;;;;;10.05;9.13;;;;;;;8.77;90.21;98867.69;5044560;28;20206;-59
2021/05/03 02:27:40;;;;;;;10.35;9.35;;;;;;;8.78;90.21;98841.00;5044548;28;20252;-59
2021/05/03 02:30:08;;;;;;;10.60;9.50;;;;;;;8.83;90.25;98825.38;5046865;28;20033;-59
2021/05/03 02:32:36;;;;;;;10.18;9.02;;;;;;;8.88;90.08;98830.38;5064359;28;20104;-59
2021/05/03 02:35:08;;;;;;;9.93;8.38;;;;;;;8.83;90.31;98829.69;5064441;28;20355;-59
2021/05/03 02:37:34;;;;;;;9.07;8.00;;;;;;;8.90;89.57;98815.72;5064261;28;20036;-59
2021/05/03 02:40:00;;;;;;;9.57;8.25;;;;;;;8.78;90.03;98810.00;5062873;28;20241;-59
2021/05/03 02:42:26;;;;;;;11.57;9.07;;;;;;;8.95;90.52;98799.19;5043191;28;20048;-59
2021/05/03 02:44:52;;;;;;;8.68;7.85;;;;;;;8.97;90.59;98791.41;5044305;28;20025;-59
2021/05/03 02:47:18;;;;;;;8.27;7.47;;;;;;;8.78;90.43;98798.84;5044158;28;20027;-59
2021/05/03 02:49:44;;;;;;;10.43;9.43;;;;;;;8.97;90.41;98786.25;5044212;28;20261;-58
2021/05/03 02:52:09;;;;;;;10.70;9.60;;;;;;;8.77;90.97;98786.81;5061920;28;20094;-59
2021/05/03 02:54:35;;;;;;;10.10;9.10;;;;;;;8.93;90.00;98769.16;5063882;28;20214;-58
2021/05/03 02:57:01;;;;;;;10.07;9.07;;;;;;;8.80;90.83;98760.91;5064200;28;20318;-59
2021/05/03 02:59:27;;;;;;;11.00;10.00;;;;;;;8.97;90.79;98753.50;5064053;28;20025;-58
2021/05/03 03:01:53;;;;;;;11.80;9.45;;;;;;;8.99;89.92;98745.72;5047310;28;20031;-58
2021/05/03 03:04:18;;;;;;;10.25;9.23;;;;;;;9.24;89.69;98745.81;5044037;28;20025;-59
2021/05/03 03:06:45;;;;;;;11.48;10.02;;;;;;;9.25;89.91;98744.06;5043851;28;20033;-59
2021/05/03 03:09:10;;;;;;;9.10;8.20;;;;;;;9.01;89.28;98743.94;5043741;28;20079;-59
2021/05/03 03:11:37;;;;;;;10.90;9.88;;;;;;;9.08;89.83;98729.94;5057522;28;20036;-59
2021/05/03 03:14:03;;;;;;;12.70;11.40;;;;;;;9.16;90.57;98727.13;5063824;28;20049;-59
2021/05/03 03:16:30;;;;;;;11.95;9.68;;;;;;;9.20;89.54;98715.78;5063605;28;20210;-59
2021/05/03 03:18:58;;;;;;;11.23;10.02;;;;;;;9.05;90.15;98717.13;5063455;28;20032;-60
2021/05/03 03:21:25;;;;;;;12.38;11.18;;;;;;;9.23;90.01;98704.53;5051354;28;20029;-59
2021/05/03 03:23:51;;;;;;;12.23;11.10;;;;;;;9.35;89.63;98704.16;5043462;28;20029;-59
2021/05/03 03:26:18;;;;;;;13.73;11.68;;;;;;;9.26;89.57;98700.13;5043446;28;20371;-59
2021/05/03 03:28:44;;;;;;;13.23;11.65;;;;;;;9.25;90.59;98694.97;5043336;28;20064;-59
2021/05/03 03:31:09;;;;;;;14.20;12.20;;;;;;;9.22;90.07;98695.06;5055672;28;20028;-58
2021/05/03 03:33:35;;;;;;;13.00;11.45;;;;;;;9.21;89.92;98691.66;5063302;28;20052;-58
2021/05/03 03:36:02;;;;;;;13.63;11.70;;;;;;;9.14;91.16;98672.91;5063115;28;20028;-59
2021/05/03 03:38:27;;;;;;;11.38;10.18;;;;;;;9.20;90.51;98681.38;5063387;28;20021;-60
2021/05/03 03:40:53;;;;;;;12.77;11.48;;;;;;;9.27;90.05;98669.94;5055926;28;20056;-59
2021/05/03 03:43:20;;;;;;;12.52;11.23;;;;;;;9.29;90.59;98660.41;5043051;28;20033;-59
2021/05/03 03:45:45;;;;;;;12.13;10.85;;;;;;;9.36;90.30;98661.88;5043327;28;20048;-59
2021/05/03 03:48:11;;;;;;;12.60;11.40;;;;;;;9.49;89.04;98670.94;5043047;28;20265;-58
2021/05/03 03:50:37;;;;;;;13.38;10.80;;;;;;;9.39;88.83;98658.34;5047794;28;20047;-58
2021/05/03 03:53:03;;;;;;;13.15;11.75;;;;;;;9.33;89.56;98660.28;5062731;28;20021;-59
2021/05/03 03:55:29;;;;;;;13.23;11.82;;;;;;;9.44;90.71;98646.97;5062855;28;20036;-58
2021/05/03 03:57:54;;;;;;;11.68;10.55;;;;;;;9.43;89.10;98634.94;5062698;28;20036;-59
2021/05/03 04:00:23;;;;;;;13.07;11.88;;;;;;;9.44;89.46;98635.81;5060177;28;20033;-57
2021/05/03 04:02:50;;;;;;;12.50;11.25;;;;;;;9.39;90.17;98619.59;5042706;28;20033;-58
2021/05/03 04:08:25;;;;;;;13.75;12.20;;;;;;;9.60;89.70;98618.03;5043027;28;20261;-60
2021/05/03 04:24:52;;;;;;;13.40;12.13;;;;;;;9.39;91.14;98580.84;5042448;28;20052;-59
2021/05/03 04:27:18;;;;;;;14.02;12.52;;;;;;;9.35;91.26;98576.66;5042643;28;20030;-59
2021/05/03 04:29:44;;;;;;;15.43;13.82;;;;;;;9.45;90.96;98547.06;5042524;28;20108;-59
2021/05/03 04:32:09;;;;;;;15.35;13.85;;;;;;;9.46;90.03;98561.63;5059044;28;20033;-58
2021/05/03 04:34:35;;;;;;;16.00;14.35;;;;;;;9.44;90.81;98568.63;5062300;28;20037;-58
2021/05/03 04:37:01;;;;;;;15.43;13.90;;;;;;;9.38;91.65;98556.75;5062327;28;20051;-59
2021/05/03 04:39:26;;;;;;;15.63;13.68;;;;;;;9.49;91.30;98556.34;5062474;28;20077;-59
2021/05/03 04:41:52;;;;;;;16.58;14.93;;;;;;;9.60;90.21;98553.41;5048488;28;20214;-59
2021/05/03 04:44:18;;;;;;;14.75;13.15;;;;;;;9.53;91.45;98541.59;5042446;28;20033;-59
2021/05/03 04:46:43;;;;;;;15.80;14.07;;;;;;;9.69;90.41;98542.75;5042397;28;20036;-59
2021/05/03 04:49:09;;;;;;;15.77;14.18;;;;;;;9.64;90.30;98529.97;5042361;28;20326;-59
2021/05/03 04:51:35;;;;;;;15.63;14.05;;;;;;;9.64;91.43;98524.78;5053447;28;20067;-59
2021/05/03 04:54:00;;;;;;;15.05;12.95;;;;;;;9.59;90.45;98512.94;5060868;28;20029;-59
2021/05/03 04:56:26;;;;;;;16.27;14.57;;;;;;;9.73;90.34;98507.28;5062295;28;20143;-59
2021/05/03 04:58:52;;;;;;;16.02;14.43;;;;;;;9.65;91.31;98507.56;5062104;28;20028;-59
2021/05/03 05:01:19;;;;;;;16.63;15.00;;;;;;;9.44;93.21;98502.25;5052993;28;20049;-59
2021/05/03 05:03:44;;;;;;;18.20;16.33;;;;;;;9.65;92.40;98492.06;5042053;28;20056;-59
2021/05/03 05:06:10;;;;;;;16.90;15.25;;;;;;;9.83;92.49;98490.50;5042112;28;20052;-59
2021/05/03 05:08:36;;;;;;;16.08;14.48;;;;;;;9.70;91.71;98476.38;5041978;28;20213;-60
2021/05/03 05:11:02;;;;;;;17.17;15.45;;;;;;;9.70;92.25;98474.63;5048321;28;20029;-59
2021/05/03 05:13:28;;;;;;;16.55;14.77;;;;;;;9.87;91.11;98473.16;5061797;28;20045;-58
2021/05/03 05:15:54;;;;;;;16.23;14.48;;;;;;;9.84;90.82;98466.34;5061875;28;20037;-58
2021/05/03 05:18:19;;;;;;;15.93;14.32;;;;;;;9.77;91.77;98467.47;5061900;28;20029;-59
2021/05/03 05:20:45;;;;;;;16.42;12.80;;;;;;;9.59;92.15;98454.34;5057831;28;20048;-59
2021/05/03 05:23:11;;;;;;;15.55;13.93;;;;;;;9.68;92.60;98450.56;5041922;28;20056;-59
2021/05/03 05:25:37;;;;;;;15.38;13.38;;;;;;;9.97;91.17;98464.94;5041835;28;20030;-58
2021/05/03 05:28:04;;;;;;;16.27;14.57;;;;;;;9.93;91.02;98459.97;5041929;28;20021;-60
2021/05/03 05:30:30;;;;;;;15.25;13.65;;;;;;;10.01;90.98;98458.75;5043233;28;20034;-59
2021/05/03 05:32:56;;;;;;;15.80;14.20;;;;;;;10.09;91.32;98449.84;5062412;28;20033;-58
2021/05/03 05:35:21;;;;;;;17.40;15.70;;;;;;;9.94;90.77;98435.78;5065129;28;20032;-58
2021/05/03 05:37:47;;;;;;;17.83;15.02;;;;;;;10.07;91.09;98436.97;5065299;28;20033;-58
2021/05/03 05:40:13;;;;;;;17.20;15.55;;;;;;;9.93;91.88;98432.38;5065209;28;20035;-60
2021/05/03 05:42:39;;;;;;;17.08;15.43;;;;;;;9.86;92.31;98415.38;5045991;28;20048;-60
2021/05/03 05:45:05;;;;;;;18.70;16.70;;;;;;;9.78;93.60;98414.88;5045181;28;20033;-61
2021/05/03 05:47:32;;;;;;;18.60;16.58;;;;;;;9.76;92.67;98401.16;5045190;28;20076;-59
2021/05/03 05:49:57;;;;;;;19.15;17.25;;;;;;;9.76;94.35;98407.19;5044889;28;20096;-59
2021/05/03 05:52:23;;;;;;;19.73;17.63;;;;;;;9.81;94.35;98409.56;5060731;28;20245;-59
2021/05/03 05:54:49;;;;;;;18.05;16.10;;;;;;;9.74;94.17;98396.03;5064928;28;20333;-60
2021/05/03 05:57:15;;;;;;;20.23;18.15;;;;;;;9.85;95.02;98398.22;5064990;28;20043;-60
2021/05/03 05:59:40;;;;;;;19.70;15.57;;;;;;;9.73;94.58;98378.84;5064836;28;20036;-60
2021/05/03 06:02:06;;;;;;;16.98;15.38;;;;;;;9.96;94.17;98379.66;5050749;28;20033;-61
2021/05/03 06:04:32;;;;;;;16.45;14.85;;;;;;;9.90;94.86;98378.16;5044780;28;20143;-60
2021/05/03 06:06:58;;;;;;;14.88;12.63;;;;;;;9.88;94.24;98377.41;5044800;28;20052;-59
2021/05/03 06:09:24;;;;;;;16.08;14.50;;;;;;;9.91;94.83;98363.50;5044890;28;20029;-61
2021/05/03 06:11:50;;;;;;;15.82;13.93;;;;;;;9.90;94.54;98365.25;5056159;28;20033;-61
2021/05/03 06:14:16;;;;;;;15.48;13.98;;;;;;;9.93;94.21;98359.97;5064711;28;20329;-61
2021/05/03 06:16:42;;;;;;;14.63;13.32;;;;;;;10.03;95.19;98357.81;5064531;28;20040;-60
2021/05/03 06:19:07;;;;;;;15.20;13.65;;;;;;;10.03;94.65;98350.06;5064568;28;20040;-60
2021/05/03 06:21:33;;;;;;;13.77;12.27;;;;;;;9.94;94.88;98350.44;5055397;28;20311;-60
2021/05/03 06:23:59;;;;;;;15.30;13.68;;;;;;;10.00;94.20;98345.88;5044558;28;20322;-60
2021/05/03 06:26:24;;;;;;;15.05;13.50;;;;;;;10.12;95.36;98333.34;5044501;28;20033;-60
2021/05/03 06:28:50;;;;;;;14.02;12.50;;;;;;;10.17;94.66;98342.56;5044088;28;20030;-60
2021/05/03 06:31:19;;;;;;;13.43;12.20;;;;;;;10.14;95.50;98342.72;5050683;28;20029;-60
2021/05/03 06:33:44;;;;;;;14.75;13.38;;;;;;;10.27;95.50;98337.03;5064239;28;20092;-62
2021/05/03 06:36:10;;;;;;;13.43;12.13;;;;;;;10.31;94.52;98330.81;5063031;28;20037;-60
2021/05/03 06:38:36;;;;;;;12.55;11.43;;;;;;;10.44;94.62;98332.00;5063129;28;20213;-61
2021/05/03 06:41:02;;;;;;;12.75;11.55;;;;;;;10.29;94.82;98314.50;5059719;28;20021;-60
2021/05/03 06:43:28;;;;;;;13.63;12.18;;;;;;;10.27;95.34;98306.81;5043961;28;20200;-61
2021/05/03 06:45:56;;;;;;;12.85;11.68;;;;;;;10.41;94.93;98310.59;5043827;28;20029;-62
2021/05/03 06:48:23;;;;;;;13.65;12.38;;;;;;;10.46;95.06;98312.09;5043764;28;20064;-61
2021/05/03 06:50:49;;;;;;;12.70;11.40;;;;;;;10.58;94.66;98299.53;5045829;28;20026;-60
2021/05/03 06:53:15;;;;;;;12.32;11.15;;;;;;;10.58;94.78;98299.53;5062330;28;20025;-60
2021/05/03 06:55:43;;;;;;;12.93;11.63;;;;;;;10.68;95.12;98308.56;5063689;28;20056;-62
2021/05/03 06:58:09;;;;;;;11.60;10.50;;;;;;;10.65;94.33;98304.34;5063795;28;20025;-61
2021/05/03 07:00:41;;;;;;;11.35;10.25;;;;;;;10.64;94.08;98289.72;5063544;28;20082;-60
2021/05/03 07:03:09;;;;;;;12.15;10.95;;;;;;;10.80;94.27;98295.06;5039117;28;20082;-60
2021/05/03 07:05:35;;;;;;;13.30;12.10;;;;;;;10.78;94.59;98281.34;5043280;28;20025;-61
2021/05/03 07:08:01;;;;;;;12.77;11.55;;;;;;;10.83;94.35;98274.22;5043493;28;20152;-61
2021/05/03 07:10:27;;;;;;;14.05;12.60;;;;;;;10.99;94.15;98279.53;5043266;28;20036;-60
2021/05/03 07:12:53;;;;;;;13.80;12.32;;;;;;;11.08;93.49;98277.44;5061915;28;20377;-60
2021/05/03 07:15:19;;;;;;;14.52;13.02;;;;;;;11.04;93.55;98279.31;5063099;28;20039;-61
2021/05/03 07:17:46;;;;;;;13.48;12.23;;;;;;;11.03;93.56;98265.53;5063293;28;20036;-61
2021/05/03 07:20:13;;;;;;;14.48;13.18;;;;;;;11.08;94.02;98280.00;5063367;28;20033;-60
2021/05/03 07:22:39;;;;;;;14.77;13.43;;;;;;;11.17;93.82;98270.06;5046574;28;20025;-60
2021/05/03 07:25:08;;;;;;;16.05;14.52;;;;;;;10.74;94.38;98207.28;5043144;28;20097;-59
2021/05/03 07:27:35;;;;;;;17.90;15.98;;;;;;;11.10;95.06;98255.72;5043057;28;20029;-59
2021/05/03 07:30:02;;;;;;;18.13;16.33;;;;;;;11.22;94.70;98249.13;5043096;28;20041;-60
2021/05/03 07:32:28;;;;;;;17.58;15.98;;;;;;;11.19;94.45;98247.50;5056750;28;20032;-59
2021/05/03 07:34:54;;;;;;;18.88;17.02;;;;;;;11.31;94.58;98243.47;5062759;28;20230;-61
2021/05/03 07:37:20;;;;;;;19.75;17.75;;;;;;;11.39;94.19;98243.94;5062985;28;20025;-60
2021/05/03 07:39:45;;;;;;;18.17;16.38;;;;;;;11.56;93.06;98245.72;5062254;28;20024;-61
2021/05/03 07:42:11;;;;;;;19.38;17.48;;;;;;;11.58;93.33;98232.69;5050370;28;20062;-59
2021/05/03 07:44:37;;;;;;;19.65;17.75;;;;;;;11.61;93.07;98222.16;5042829;28;20061;-60
2021/05/03 07:47:04;;;;;;;20.77;18.58;;;;;;;11.64;93.18;98234.13;5042796;28;20040;-60
2021/05/03 07:49:30;;;;;;;21.90;19.70;;;;;;;11.71;93.24;98206.97;5043330;28;20033;-60
2021/05/03 07:51:56;;;;;;;21.85;19.73;;;;;;;11.71;93.86;98219.94;5052744;28;20032;-58
2021/05/03 07:54:22;;;;;;;20.33;18.33;;;;;;;11.70;94.48;98213.06;5062832;28;20032;-59
2021/05/03 07:56:48;;;;;;;21.05;18.85;;;;;;;11.83;93.84;98214.16;5062003;28;20029;-59
2021/05/03 07:59:14;;;;;;;22.15;19.77;;;;;;;11.94;93.80;98205.84;5062800;28;20154;-59
2021/05/03 08:01:40;;;;;;;21.67;19.48;;;;;;;11.85;94.13;98203.69;5054991;28;20025;-60
2021/05/03 08:04:06;;;;;;;22.70;20.40;;;;;;;11.88;94.24;98187.97;5042784;28;20025;-60
2021/05/03 08:06:32;;;;;;;24.10;21.50;;;;;;;11.95;94.07;98183.34;5042698;28;20048;-59
2021/05/03 08:09:00;;;;;;;22.00;19.73;;;;;;;11.96;94.10;98178.09;5042826;28;20040;-59
2021/05/03 08:11:26;;;;;;;24.05;21.63;;;;;;;12.00;93.85;98174.41;5047982;28;20344;-60
2021/05/03 08:13:52;;;;;;;26.23;23.42;;;;;;;12.20;93.73;98175.97;5062478;28;20037;-61
2021/05/03 08:16:20;;;;;;;24.35;21.90;;;;;;;12.16;93.83;98171.03;5062302;28;20040;-61
2021/05/03 08:18:46;;;;;;;23.90;21.30;;;;;;;12.13;94.54;98165.97;5062421;28;20035;-61
2021/05/03 08:21:12;;;;;;;27.55;24.02;;;;;;;12.06;94.82;98165.47;5059206;28;20021;-60
2021/05/03 08:23:40;;;;;;;27.95;23.83;;;;;;;12.16;94.93;98158.88;5042479;28;20034;-61
2021/05/03 08:26:07;;;;;;;27.13;24.25;;;;;;;12.28;94.36;98161.75;5042919;28;20036;-61
2021/05/03 08:28:33;;;;;;;25.52;22.83;;;;;;;12.35;94.36;98158.72;5042702;28;20025;-60
2021/05/03 08:30:59;;;;;;;27.88;25.15;;;;;;;12.53;93.89;98156.09;5042433;28;20105;-60
2021/05/03 08:33:26;;;;;;;27.15;24.20;;;;;;;12.45;92.93;98114.94;5062305;28;20025;-60
2021/05/03 08:35:52;;;;;;;26.58;23.88;;;;;;;12.63;93.50;98146.88;5062521;28;20078;-60
2021/05/03 08:38:18;;;;;;;25.70;23.20;;;;;;;12.67;94.06;98143.19;5062558;28;20029;-60
2021/05/03 08:40:46;;;;;;;30.08;26.98;;;;;;;12.80;92.99;98164.13;5062383;28;20027;-60
2021/05/03 08:43:11;;;;;;;24.77;22.38;;;;;;;12.91;92.79;98146.19;5043006;28;20056;-61
2021/05/03 08:45:39;;;;;;;28.77;25.88;;;;;;;12.99;92.89;98137.09;5042381;28;20056;-61
2021/05/03 08:48:17;;;;;;;27.85;24.58;;;;;;;12.98;93.13;98125.03;5042246;28;20321;-61
2021/05/03 08:53:21;;;;;;;27.17;24.40;;;;;;;12.72;93.07;98088.38;5061675;28;20025;-60
2021/05/03 08:55:47;;;;;;;24.25;21.80;;;;;;;13.12;92.92;98130.28;5062292;28;20029;-60
2021/05/03 08:58:13;;;;;;;27.17;24.33;;;;;;;13.23;91.94;98130.50;5062001;28;20340;-60
2021/05/03 09:00:39;;;;;;;25.25;22.75;;;;;;;13.21;92.24;98119.38;5062429;28;20202;-60
2021/05/03 09:03:10;;;;;;;26.05;23.35;;;;;;;13.27;92.02;98120.78;5044026;28;20096;-60
2021/05/03 09:05:36;;;;;;;27.45;24.48;;;;;;;13.11;92.42;98102.59;5042266;28;20036;-60
2021/05/03 09:08:03;;;;;;;27.80;25.00;;;;;;;13.32;93.19;98115.31;5044523;28;20206;-60
2021/05/03 09:10:30;;;;;;;26.83;24.23;;;;;;;13.38;92.58;98107.16;5046017;28;20053;-60
2021/05/03 09:13:13;;;;;;;27.55;24.65;;;;;;;13.50;92.34;98105.63;5061959;28;20318;-60
2021/05/03 09:15:39;;;;;;;26.33;23.67;;;;;;;13.59;92.34;98105.91;5065970;28;20353;-60
2021/05/03 09:18:05;;;;;;;24.67;22.15;;;;;;;13.71;92.11;98104.34;5065733;28;20031;-60
2021/05/03 09:20:32;;;;;;;26.42;23.73;;;;;;;13.79;91.40;98096.91;5065831;28;20063;-60
2021/05/03 09:25:39;;;;;;;29.93;24.70;;;;;;;13.55;91.62;98048.94;5045655;28;20341;-59
2021/05/03 09:28:20;;;;;;;27.65;24.73;;;;;;;13.88;91.69;98090.31;5045554;28;20025;-60
2021/05/03 09:30:54;;;;;;;26.92;24.13;;;;;;;13.97;92.32;98092.34;5045511;28;20036;-60
2021/05/03 09:33:26;;;;;;;29.38;26.13;;;;;;;14.17;92.19;98094.66;5064567;28;20218;-60
2021/05/03 09:35:59;;;;;;;29.33;26.17;;;;;;;14.00;91.69;98048.84;5065319;28;20025;-59
2021/05/03 09:38:39;;;;;;;27.95;24.85;;;;;;;14.22;91.01;98098.63;5065135;28;20120;-59
2021/05/03 09:41:16;;;;;;;31.52;26.30;;;;;;;14.21;91.08;98083.09;5064680;28;20033;-59
2021/05/03 09:43:47;;;;;;;28.20;25.13;;;;;;;14.24;92.17;98078.56;5045410;28;20029;-59
2021/05/03 09:46:42;;;;;;;28.42;25.17;;;;;;;14.35;91.87;98077.03;5045300;28;20497;-59
2021/05/03 09:49:20;;;;;;;44.58;37.55;;;;;;;14.18;91.29;98034.69;5045060;28;20055;-59
2021/05/03 09:51:59;;;;;;;32.85;28.90;;;;;;;14.42;91.67;98066.16;5050749;28;20025;-60
2021/05/03 09:54:28;;;;;;;29.35;25.55;;;;;;;14.13;90.74;98031.53;5064471;28;20029;-60
2021/05/03 09:57:03;;;;;;;28.58;25.48;;;;;;;14.50;91.46;98083.91;5064681;28;20329;-59
2021/05/03 09:59:41;;;;;;;28.50;25.27;;;;;;;14.20;91.36;98026.78;5065051;28;20033;-60
2021/05/03 10:02:31;;;;;;;38.50;30.45;;;;;;;14.60;91.75;98091.97;5056161;28;20021;-60
2021/05/03 10:05:04;;;;;;;28.83;25.83;;;;;;;14.65;90.91;98074.28;5044676;28;20156;-61
2021/05/03 10:07:32;;;;;;;28.10;25.02;;;;;;;14.64;90.64;98078.66;5044825;28;20240;-60
2021/05/03 10:12:26;;;;;;;27.55;24.17;;;;;;;14.67;90.88;98067.22;5055118;28;20987;-60
2021/05/03 10:14:53;;;;;;;26.33;23.48;;;;;;;14.88;90.40;98079.78;5064640;28;20233;-59
2021/05/03 10:17:19;;;;;;;25.27;22.63;;;;;;;14.90;90.49;98075.31;5064254;28;20340;-60
2021/05/03 10:19:51;;;;;;;29.30;25.90;;;;;;;14.92;90.04;98082.09;5063771;28;20025;-59
2021/05/03 10:22:21;;;;;;;27.38;24.48;;;;;;;15.01;89.71;98081.47;5054958;28;20242;-59
2021/05/03 10:24:54;;;;;;;27.92;24.92;;;;;;;15.01;90.20;98075.44;5044663;28;20083;-60
2021/05/03 10:27:21;;;;;;;27.95;24.95;;;;;;;14.93;90.46;98077.72;5044568;28;20093;-60
2021/05/03 10:29:49;;;;;;;25.83;22.92;;;;;;;15.02;90.11;98083.16;5044171;28;20037;-60
2021/05/03 10:32:23;;;;;;;27.90;23.95;;;;;;;15.00;89.27;98068.56;5052856;28;20313;-61
2021/05/03 10:34:54;;;;;;;26.17;23.25;;;;;;;14.80;89.16;98031.59;5064170;28;20032;-61
2021/05/03 10:37:29;;;;;;;27.43;24.47;;;;;;;15.05;89.57;98074.31;5063253;28;20375;-60
2021/05/03 10:39:56;;;;;;;26.85;23.40;;;;;;;15.15;89.62;98074.53;5064192;28;20028;-59
2021/05/03 10:42:29;;;;;;;26.80;23.88;;;;;;;15.23;89.37;98074.03;5053475;28;20025;-60
2021/05/03 10:45:17;;;;;;;26.42;22.65;;;;;;;15.30;88.53;98070.06;5044052;28;20030;-59
2021/05/03 10:47:53;;;;;;;23.92;21.52;;;;;;;15.34;88.98;98071.53;5044086;28;20036;-59
2021/05/03 10:50:33;;;;;;;24.35;21.63;;;;;;;15.35;88.51;98068.81;5044065;28;20041;-60
2021/05/03 10:53:34;;;;;;;25.42;22.73;;;;;;;15.34;88.59;98066.31;5058208;28;20045;-60
2021/05/03 10:56:09;;;;;;;29.98;25.13;;;;;;;15.30;88.56;98054.41;5063831;28;20040;-60
2021/05/03 10:58:53;;;;;;;29.02;24.48;;;;;;;15.35;88.85;98055.78;5063553;28;20027;-59
2021/05/03 11:01:20;;;;;;;31.42;26.80;;;;;;;15.64;88.12;98052.13;5062992;28;20108;-60
2021/05/03 11:03:55;;;;;;;27.98;24.98;;;;;;;15.84;87.66;98038.53;5063653;28;20036;-60
2021/05/03 11:06:35;;;;;;;24.88;22.27;;;;;;;16.17;86.87;98041.50;5063588;28;20025;-60
2021/05/03 11:09:30;;;;;;;26.25;23.45;;;;;;;16.36;86.30;98033.19;5063549;28;20052;-59
2021/05/03 11:12:06;;;;;;;23.13;20.83;;;;;;;16.49;86.13;98026.13;5058377;28;20026;-60
2021/05/03 11:14:34;;;;;;;24.50;21.95;;;;;;;16.46;84.64;98010.69;5043566;28;20257;-60
2021/05/03 11:17:10;;;;;;;26.05;21.13;;;;;;;16.65;84.61;98023.22;5043542;28;20033;-60
2021/05/03 11:22:22;;;;;;;23.42;21.00;;;;;;;16.99;83.28;98014.72;5050806;28;20029;-60
2021/05/03 11:24:58;;;;;;;21.63;19.52;;;;;;;16.98;82.43;98003.41;5063083;28;20092;-59
2021/05/03 11:30:34;;;;;;;20.13;17.70;;;;;;;16.70;81.83;97968.84;5062424;28;20036;-60
2021/05/03 11:33:08;;;;;;;22.70;19.15;;;;;;;17.07;81.94;98007.09;5049361;28;20061;-61
2021/05/03 11:46:08;;;;;;;20.77;18.73;;;;;;;17.22;80.40;97969.31;5063062;28;20041;-59
2021/05/03 11:48:34;;;;;;;19.23;17.23;;;;;;;17.27;80.43;97987.28;5062799;28;20029;-61
2021/05/03 11:51:08;;;;;;;20.15;16.70;;;;;;;17.20;79.53;97936.38;5062760;28;20089;-58
2021/05/03 11:53:42;;;;;;;20.15;16.23;;;;;;;17.56;79.01;97965.88;5044806;28;20076;-60
2021/05/03 11:56:37;;;;;;;19.77;16.25;;;;;;;17.40;77.76;97963.59;5042706;28;20067;-59
2021/05/03 11:59:03;;;;;;;20.80;16.83;;;;;;;17.45;78.92;97955.41;5042556;28;20049;-59
2021/05/03 12:01:29;;;;;;;18.63;16.70;;;;;;;17.60;77.69;97956.84;5042996;28;20257;-59
2021/05/03 12:04:00;;;;;;;19.95;17.88;;;;;;;17.66;77.60;97968.59;5062467;28;20029;-59
2021/05/03 12:06:50;;;;;;;21.27;16.85;;;;;;;17.79;77.46;97950.97;5062505;28;20037;-60
2021/05/03 12:09:15;;;;;;;18.00;16.20;;;;;;;17.89;76.60;97944.03;5062528;28;20056;-60